aviador You're here:

KEHO Decoded Metar

SHELBY MUNI in NC, USA
Report Time2018-07-22 15:55:00
UTC Time2018-07-22 16:11:21
Flight Rules vfr VFR
Wind160° at 03 kt
W.Decomp.*RWY 23: 1.3 kt HW 2.7 kt LCW
W.Rank160° ranks 13
Current wind is below 160° avg. (4.3)
Visibility9999 m
Phenomena:N/A
Clouds:Scattered 095 Hf
Expected CloudBase > 3,200 ft AGL from Temp-Dew spread
CeilingNone
Temp27°C (ISA +14)
Dew Point19°C (62% RH)
Heat Index28.2°C
QNH1009 hPa
Density Alt2,851 ft
Elevation846 ft
Report Wrong Elevation
Raw Report
METAR KEHO 221555Z AUTO 16003KT 10SM SCT095 27/19 A2979 RMK AO2 T02650185=

Extra information for KEHO:More info

Metar Taf Metar & Taf Last 4 Metars F.Rules Stats Wind Profile Meteogram Temp Stats Airport Information Weather charts Add Link Nearby VenuesMetar ALERT Operation Metar Decoded Social comments

AIRNAV info for KEHO